Alsip, Illinois
Current Conditions -  °F | °C
As of 8:53 PM on Friday 31 Oct 2014 (Local Time) from KMDW Reporting Station
Overcast Overcast  
Wind Chill: 28°   Ceiling: 5500
Heat Index: 39°   Visibility: 10mi
Dew Point: 28°   Wind: 24mph
Humidity: 65%   Direction: 10°N
Pressure: 30.31"   Gusts: 32mph
Location:  41.67°N, 87.73°W
Report Text: KMDW 010153Z 01021G28KT 10SM FEW035 OVC055 04/M02 A3031 RMK AO2 PK WND 35028/0150 SNE03 SLP271 P0000 T00391022
Loading
Personal Weather Stations






























Interactive Weather Map New forecast layout! Learn more

10-Day Weather Forecast

Advertisements
Track Severe Weather on mobile